Time;durP1;ratioP1;P1;durP2;ratioP2;P2;SDS_P1;SDS_P2;PMS_P1;PMS_P2;Temp;Humidity;BMP_temperature;BMP_pressure;BME280_temperature;BME280_humidity;BME280_pressure;Samples;Min_cycle;Max_cycle;Signal;HPM_P1;HPM_P2
2023/11/18 00:00:52;;;;;;;74.90;48.50;;;;;;;;;;5142159;28;20205;-79
2023/11/18 00:03:21;;;;;;;82.43;48.05;;;;;;;;;;5140280;28;20436;-78
2023/11/18 00:05:48;;;;;;;83.00;48.75;;;;;;;;;;5145537;28;20212;-77
2023/11/18 00:08:16;;;;;;;78.90;50.42;;;;;;;;;;5149088;28;20264;-78
2023/11/18 00:10:43;;;;;;;84.43;47.28;;;;;;;;;;5147898;28;20246;-78
2023/11/18 00:13:11;;;;;;;92.90;49.38;;;;;;;;;;5149226;28;20209;-78
2023/11/18 00:15:38;;;;;;;89.63;48.95;;;;;;;;;;5145282;28;20201;-78
2023/11/18 00:18:05;;;;;;;93.55;49.05;;;;;;;;;;5142759;28;20220;-78
2023/11/18 00:20:35;;;;;;;83.43;48.90;;;;;;;;;;5146839;28;20204;-79
2023/11/18 00:23:04;;;;;;;78.35;48.72;;;;;;;;;;5143514;28;21026;-78
2023/11/18 00:25:35;;;;;;;90.43;49.00;;;;;;;;;;5138827;28;20224;-79
2023/11/18 00:28:02;;;;;;;96.37;50.97;;;;;;;;;;5132713;28;20978;-78
2023/11/18 00:30:29;;;;;;;95.10;48.65;;;;;;;;;;5120111;28;20455;-79
2023/11/18 00:32:56;;;;;;;82.00;46.83;;;;;;;;;;5120527;28;20240;-78
2023/11/18 00:35:23;;;;;;;93.20;47.92;;;;;;;;;;5119620;28;20197;-78
2023/11/18 00:37:51;;;;;;;101.30;49.20;;;;;;;;;;5120463;28;20214;-78
2023/11/18 00:40:18;;;;;;;82.20;49.03;;;;;;;;;;5119942;28;20226;-78
2023/11/18 00:42:46;;;;;;;88.10;49.40;;;;;;;;;;5118049;28;20745;-79
2023/11/18 00:45:13;;;;;;;86.88;49.25;;;;;;;;;;5117256;28;20451;-78
2023/11/18 00:47:40;;;;;;;99.00;48.63;;;;;;;;;;5118679;28;20234;-79
2023/11/18 00:50:09;;;;;;;85.65;48.55;;;;;;;;;;5133543;28;20190;-77
2023/11/18 00:52:38;;;;;;;102.47;49.37;;;;;;;;;;5135049;28;20234;-78
2023/11/18 00:55:08;;;;;;;106.53;55.00;;;;;;;;;;5133540;28;20501;-78
2023/11/18 00:57:35;;;;;;;99.90;51.90;;;;;;;;;;5134303;28;20551;-78
2023/11/18 01:00:03;;;;;;;103.80;48.97;;;;;;;;;;5136379;28;20213;-77
2023/11/18 01:02:31;;;;;;;108.65;53.53;;;;;;;;;;5127664;28;20546;-77
2023/11/18 01:04:58;;;;;;;103.65;51.45;;;;;;;;;;5117855;28;20202;-78
2023/11/18 01:07:25;;;;;;;108.22;54.13;;;;;;;;;;5120637;28;20237;-78
2023/11/18 01:09:52;;;;;;;106.83;52.20;;;;;;;;;;5118340;28;20213;-79
2023/11/18 01:12:20;;;;;;;91.20;48.42;;;;;;;;;;5118172;28;20447;-78
2023/11/18 01:14:47;;;;;;;111.47;53.60;;;;;;;;;;5116027;28;20205;-77
2023/11/18 01:17:15;;;;;;;112.93;53.88;;;;;;;;;;5116593;28;20446;-78
2023/11/18 01:19:42;;;;;;;103.15;49.63;;;;;;;;;;5123526;28;20210;-78
2023/11/18 01:22:11;;;;;;;102.13;48.30;;;;;;;;;;5126439;28;20229;-78
2023/11/18 01:24:38;;;;;;;122.75;50.38;;;;;;;;;;5115769;28;20711;-78
2023/11/18 01:27:07;;;;;;;113.35;48.88;;;;;;;;;;5115956;28;20194;-79
2023/11/18 01:29:36;;;;;;;107.53;50.42;;;;;;;;;;5116016;28;20897;-79
2023/11/18 01:32:08;;;;;;;92.35;48.78;;;;;;;;;;5130425;27;20208;-79
2023/11/18 01:34:36;;;;;;;112.43;47.28;;;;;;;;;;5136641;27;20190;-78
2023/11/18 01:37:04;;;;;;;94.70;47.67;;;;;;;;;;5136856;27;20212;-79
2023/11/18 01:39:31;;;;;;;91.43;47.90;;;;;;;;;;5136415;27;20530;-79
2023/11/18 01:41:59;;;;;;;91.68;46.92;;;;;;;;;;5135685;27;20225;-78
2023/11/18 01:44:28;;;;;;;90.35;47.35;;;;;;;;;;5136398;27;20238;-79
2023/11/18 01:46:56;;;;;;;85.15;45.15;;;;;;;;;;5137269;27;20206;-79
2023/11/18 01:49:24;;;;;;;67.75;41.45;;;;;;;;;;5136601;27;20254;-79
2023/11/18 01:51:52;;;;;;;73.55;42.38;;;;;;;;;;5136494;27;20607;-79
2023/11/18 01:54:19;;;;;;;58.65;40.90;;;;;;;;;;5135554;27;20201;-79
2023/11/18 01:56:47;;;;;;;65.57;41.80;;;;;;;;;;5136576;27;20205;-78
2023/11/18 01:59:18;;;;;;;60.97;43.65;;;;;;;;;;5135787;27;20221;-78
2023/11/18 02:01:46;;;;;;;67.50;42.45;;;;;;;;;;5137004;27;20225;-78
2023/11/18 02:04:14;;;;;;;75.97;45.40;;;;;;;;;;5135531;27;20205;-79
2023/11/18 02:06:41;;;;;;;86.00;46.35;;;;;;;;;;5135870;27;20216;-78
2023/11/18 02:09:08;;;;;;;73.63;44.35;;;;;;;;;;5136412;27;20221;-78
2023/11/18 02:11:41;;;;;;;66.77;43.90;;;;;;;;;;5136105;27;20209;-78
2023/11/18 02:14:10;;;;;;;65.78;42.63;;;;;;;;;;5135052;27;20968;-78
2023/11/18 02:16:37;;;;;;;66.27;40.33;;;;;;;;;;5135448;27;20205;-78
2023/11/18 02:19:07;;;;;;;60.85;40.10;;;;;;;;;;5135865;27;20482;-77
2023/11/18 02:21:35;;;;;;;68.72;43.50;;;;;;;;;;5135504;27;20205;-78
2023/11/18 02:24:04;;;;;;;68.50;43.33;;;;;;;;;;5136325;27;20205;-78
2023/11/18 02:26:32;;;;;;;84.45;43.35;;;;;;;;;;5136623;27;20208;-78
2023/11/18 02:28:59;;;;;;;89.80;42.08;;;;;;;;;;5135192;27;20626;-77
2023/11/18 02:31:31;;;;;;;70.40;44.20;;;;;;;;;;5135439;27;20198;-79
2023/11/18 02:34:03;;;;;;;76.65;42.67;;;;;;;;;;5134865;27;20431;-78
2023/11/18 02:36:36;;;;;;;61.40;38.65;;;;;;;;;;5135671;27;20186;-78
2023/11/18 02:39:07;;;;;;;72.82;43.03;;;;;;;;;;5136144;27;20225;-79
2023/11/18 02:41:39;;;;;;;80.85;42.65;;;;;;;;;;5135422;27;20213;-78
2023/11/18 02:44:10;;;;;;;66.05;39.25;;;;;;;;;;5135376;27;20701;-78
2023/11/18 02:46:38;;;;;;;93.80;44.80;;;;;;;;;;5136108;27;20284;-78
2023/11/18 02:49:05;;;;;;;114.55;45.95;;;;;;;;;;5135002;27;21272;-77
2023/11/18 02:51:33;;;;;;;66.38;40.50;;;;;;;;;;5135260;27;20296;-78
2023/11/18 02:54:00;;;;;;;70.95;42.47;;;;;;;;;;5134351;27;20229;-78
2023/11/18 02:56:27;;;;;;;102.63;41.97;;;;;;;;;;5135521;27;20209;-78
2023/11/18 02:58:56;;;;;;;80.05;42.65;;;;;;;;;;5135246;27;20715;-78
2023/11/18 03:01:25;;;;;;;88.15;40.08;;;;;;;;;;5135634;27;20201;-78
2023/11/18 03:03:52;;;;;;;86.60;43.07;;;;;;;;;;5134641;27;20266;-79
2023/11/18 03:06:19;;;;;;;70.88;40.17;;;;;;;;;;5134668;27;20458;-79
2023/11/18 03:08:46;;;;;;;58.17;40.10;;;;;;;;;;5134478;27;21031;-77
2023/11/18 03:11:13;;;;;;;92.90;42.28;;;;;;;;;;5134986;27;20205;-78
2023/11/18 03:13:40;;;;;;;120.45;41.92;;;;;;;;;;5134333;27;20673;-78
2023/11/18 03:16:11;;;;;;;96.80;41.75;;;;;;;;;;5133989;27;20212;-78
2023/11/18 03:18:39;;;;;;;99.32;41.97;;;;;;;;;;5134187;27;20222;-79
2023/11/18 03:21:07;;;;;;;103.47;44.47;;;;;;;;;;5134186;27;20262;-78
2023/11/18 03:23:34;;;;;;;108.70;45.40;;;;;;;;;;5134317;27;20270;-79
2023/11/18 03:26:01;;;;;;;72.55;42.95;;;;;;;;;;5133920;27;20200;-79
2023/11/18 03:28:28;;;;;;;72.57;41.50;;;;;;;;;;5134168;27;20221;-78
2023/11/18 03:30:55;;;;;;;62.92;40.47;;;;;;;;;;5133774;27;20205;-79
2023/11/18 03:33:23;;;;;;;63.47;39.00;;;;;;;;;;5133754;27;20835;-78
2023/11/18 03:35:50;;;;;;;84.03;43.60;;;;;;;;;;5133017;27;20193;-79
2023/11/18 03:38:18;;;;;;;69.32;39.67;;;;;;;;;;5134796;27;20221;-78
2023/11/18 03:40:46;;;;;;;82.05;40.80;;;;;;;;;;5134457;27;20202;-78
2023/11/18 03:43:13;;;;;;;77.22;39.85;;;;;;;;;;5134099;27;20292;-78
2023/11/18 03:45:40;;;;;;;79.82;37.50;;;;;;;;;;5133352;27;20216;-79
2023/11/18 03:48:07;;;;;;;73.07;39.70;;;;;;;;;;5133963;27;20225;-78
2023/11/18 03:50:36;;;;;;;46.10;37.92;;;;;;;;;;5134033;27;20200;-77
2023/11/18 03:53:03;;;;;;;59.03;36.55;;;;;;;;;;5134762;27;20614;-78
2023/11/18 03:55:30;;;;;;;45.58;35.72;;;;;;;;;;5133614;27;20213;-77
2023/11/18 03:57:58;;;;;;;55.30;39.13;;;;;;;;;;5133985;27;20223;-78
2023/11/18 04:00:29;;;;;;;51.05;37.05;;;;;;;;;;5135630;27;20201;-77
2023/11/18 04:02:57;;;;;;;40.40;36.10;;;;;;;;;;5133441;28;20213;-78
2023/11/18 04:05:24;;;;;;;44.47;36.55;;;;;;;;;;5137367;27;20233;-77
2023/11/18 04:07:52;;;;;;;42.00;36.45;;;;;;;;;;5140143;27;20217;-77
2023/11/18 04:10:20;;;;;;;47.90;36.80;;;;;;;;;;5140850;27;20205;-78
2023/11/18 04:12:48;;;;;;;44.38;37.85;;;;;;;;;;5140708;27;20239;-78
2023/11/18 04:15:15;;;;;;;48.17;37.30;;;;;;;;;;5140969;27;20687;-78
2023/11/18 04:17:44;;;;;;;41.17;36.92;;;;;;;;;;5140670;27;20592;-78
2023/11/18 04:20:11;;;;;;;43.70;37.33;;;;;;;;;;5142508;27;20216;-78
2023/11/18 04:22:39;;;;;;;41.63;37.00;;;;;;;;;;5140535;27;20584;-79
2023/11/18 04:25:08;;;;;;;39.92;35.55;;;;;;;;;;5139824;27;20312;-78
2023/11/18 04:27:35;;;;;;;47.75;36.88;;;;;;;;;;5140123;27;20229;-79
2023/11/18 04:30:02;;;;;;;41.78;37.35;;;;;;;;;;5139731;27;20741;-78
2023/11/18 04:32:32;;;;;;;41.13;36.60;;;;;;;;;;5139859;27;20227;-78
2023/11/18 04:34:59;;;;;;;42.08;37.67;;;;;;;;;;5139463;27;20197;-78
2023/11/18 04:37:26;;;;;;;43.65;36.45;;;;;;;;;;5141571;27;20562;-78
2023/11/18 04:39:55;;;;;;;41.72;37.03;;;;;;;;;;5151233;27;20217;-79
2023/11/18 04:42:23;;;;;;;49.92;38.53;;;;;;;;;;5144894;27;20209;-79
2023/11/18 04:44:50;;;;;;;39.92;35.90;;;;;;;;;;5142755;27;20205;-80
2023/11/18 04:47:18;;;;;;;41.80;35.30;;;;;;;;;;5142770;27;20700;-79
2023/11/18 04:49:47;;;;;;;41.35;36.60;;;;;;;;;;5141888;27;20208;-79
2023/11/18 04:52:14;;;;;;;47.35;37.70;;;;;;;;;;5141654;27;20236;-79
2023/11/18 04:54:41;;;;;;;43.80;36.92;;;;;;;;;;5141657;27;20208;-78
2023/11/18 04:57:08;;;;;;;51.38;37.53;;;;;;;;;;5142282;27;20201;-79
2023/11/18 04:59:38;;;;;;;49.55;37.90;;;;;;;;;;5142332;27;20539;-79
2023/11/18 05:02:06;;;;;;;45.22;36.47;;;;;;;;;;5142403;27;20212;-79
2023/11/18 05:04:33;;;;;;;48.35;37.90;;;;;;;;;;5141226;27;20253;-79
2023/11/18 05:07:00;;;;;;;54.28;36.67;;;;;;;;;;5143125;27;20197;-79
2023/11/18 05:09:27;;;;;;;44.10;38.47;;;;;;;;;;5142720;27;20206;-78
2023/11/18 05:11:55;;;;;;;43.88;37.40;;;;;;;;;;5142398;27;20205;-79
2023/11/18 05:14:22;;;;;;;42.88;36.03;;;;;;;;;;5141601;27;20201;-78
2023/11/18 05:16:50;;;;;;;44.28;38.20;;;;;;;;;;5138961;27;20744;-79
2023/11/18 05:19:17;;;;;;;44.67;35.75;;;;;;;;;;5138907;27;20218;-79
2023/11/18 05:21:49;;;;;;;44.42;36.38;;;;;;;;;;5138608;27;20246;-79
2023/11/18 05:24:16;;;;;;;45.08;36.75;;;;;;;;;;5137826;27;20217;-77
2023/11/18 05:26:43;;;;;;;45.53;35.60;;;;;;;;;;5139044;27;20212;-78
2023/11/18 05:29:10;;;;;;;43.35;37.58;;;;;;;;;;5138689;27;20238;-78
2023/11/18 05:31:39;;;;;;;45.30;38.05;;;;;;;;;;5137984;27;20602;-78
2023/11/18 05:34:07;;;;;;;43.55;36.47;;;;;;;;;;5138239;27;20204;-79
2023/11/18 05:36:37;;;;;;;41.20;36.55;;;;;;;;;;5137416;27;20201;-78
2023/11/18 05:39:04;;;;;;;42.28;36.17;;;;;;;;;;5137484;27;20708;-77
2023/11/18 05:41:35;;;;;;;41.67;35.50;;;;;;;;;;5137471;27;20608;-78
2023/11/18 05:44:02;;;;;;;42.03;37.72;;;;;;;;;;5137428;27;20213;-77
2023/11/18 05:46:30;;;;;;;42.97;36.28;;;;;;;;;;5152406;27;20245;-78
2023/11/18 05:48:57;;;;;;;41.00;35.20;;;;;;;;;;5138093;27;20697;-79
2023/11/18 05:51:26;;;;;;;49.00;38.33;;;;;;;;;;5138130;27;20214;-78
2023/11/18 05:53:53;;;;;;;41.38;35.25;;;;;;;;;;5138829;27;20205;-79
2023/11/18 05:56:22;;;;;;;42.40;37.45;;;;;;;;;;5138142;27;20287;-78
2023/11/18 05:58:49;;;;;;;44.38;36.25;;;;;;;;;;5137427;27;20217;-79
2023/11/18 06:01:16;;;;;;;37.03;32.92;;;;;;;;;;5121178;28;20239;-79
2023/11/18 06:03:44;;;;;;;40.13;34.75;;;;;;;;;;5117021;28;20225;-77
2023/11/18 06:06:13;;;;;;;40.40;34.20;;;;;;;;;;5119569;28;20213;-79
2023/11/18 06:08:42;;;;;;;44.83;36.17;;;;;;;;;;5119334;28;20256;-79
2023/11/18 06:11:13;;;;;;;40.67;35.33;;;;;;;;;;5125880;27;20236;-78
2023/11/18 06:13:44;;;;;;;38.15;33.85;;;;;;;;;;5116374;28;20920;-77
2023/11/18 06:16:13;;;;;;;42.28;35.78;;;;;;;;;;5117001;28;20206;-79
2023/11/18 06:18:40;;;;;;;38.92;35.08;;;;;;;;;;5116388;28;20637;-78
2023/11/18 06:21:08;;;;;;;39.20;34.72;;;;;;;;;;5116558;28;20667;-79
2023/11/18 06:23:35;;;;;;;36.72;33.17;;;;;;;;;;5117124;28;20222;-79
2023/11/18 06:26:04;;;;;;;43.47;33.10;;;;;;;;;;5116729;28;20213;-79
2023/11/18 06:28:32;;;;;;;38.28;34.25;;;;;;;;;;5116476;28;20229;-78
2023/11/18 06:30:59;;;;;;;38.05;33.78;;;;;;;;;;5116649;28;20560;-78
2023/11/18 06:33:27;;;;;;;39.00;33.65;;;;;;;;;;5117086;28;20558;-79
2023/11/18 06:35:56;;;;;;;39.05;34.95;;;;;;;;;;5116571;28;20198;-78
2023/11/18 06:38:24;;;;;;;40.35;33.90;;;;;;;;;;5116067;28;20233;-79
2023/11/18 06:40:52;;;;;;;38.85;34.72;;;;;;;;;;5116866;28;20301;-78
2023/11/18 06:43:21;;;;;;;42.17;35.55;;;;;;;;;;5116018;28;20245;-79
2023/11/18 06:45:48;;;;;;;36.85;33.22;;;;;;;;;;5115805;28;20202;-78
2023/11/18 06:48:19;;;;;;;36.97;33.13;;;;;;;;;;5116537;28;20972;-78
2023/11/18 06:50:47;;;;;;;39.00;34.67;;;;;;;;;;5117361;28;20190;-78
2023/11/18 06:53:15;;;;;;;39.10;34.80;;;;;;;;;;5118387;28;20210;-78
2023/11/18 06:55:42;;;;;;;38.20;34.25;;;;;;;;;;5116913;28;20210;-78
2023/11/18 06:58:09;;;;;;;37.92;33.78;;;;;;;;;;5116232;28;20230;-79
2023/11/18 07:00:38;;;;;;;39.20;35.05;;;;;;;;;;5117431;27;20242;-78
2023/11/18 07:03:05;;;;;;;37.25;33.05;;;;;;;;;;5119274;28;20255;-78
2023/11/18 07:05:32;;;;;;;40.47;34.55;;;;;;;;;;5117647;28;20205;-79
2023/11/18 07:07:59;;;;;;;40.38;33.00;;;;;;;;;;5116259;28;20234;-79
2023/11/18 07:10:27;;;;;;;37.65;33.22;;;;;;;;;;5117122;28;20681;-78
2023/11/18 07:12:54;;;;;;;36.38;32.70;;;;;;;;;;5116217;28;20745;-79
2023/11/18 07:15:21;;;;;;;38.33;33.50;;;;;;;;;;5116100;28;20250;-79
2023/11/18 07:17:51;;;;;;;42.75;36.25;;;;;;;;;;5116698;28;20214;-78
2023/11/18 07:20:18;;;;;;;37.85;33.83;;;;;;;;;;5117227;28;20229;-80
2023/11/18 07:22:45;;;;;;;39.10;34.95;;;;;;;;;;5117535;28;20218;-78
2023/11/18 07:25:12;;;;;;;36.20;32.35;;;;;;;;;;5116765;28;20233;-80
2023/11/18 07:27:39;;;;;;;36.90;32.95;;;;;;;;;;5118736;28;20248;-79
2023/11/18 07:30:07;;;;;;;39.95;34.20;;;;;;;;;;5133318;27;20210;-79
2023/11/18 07:32:35;;;;;;;36.45;32.75;;;;;;;;;;5137391;27;20213;-80
2023/11/18 07:35:08;;;;;;;38.03;33.95;;;;;;;;;;5140186;27;20197;-80
2023/11/18 07:37:36;;;;;;;35.92;30.75;;;;;;;;;;5140278;27;20708;-79
2023/11/18 07:40:05;;;;;;;37.83;33.90;;;;;;;;;;5139251;27;20653;-78
2023/11/18 07:42:34;;;;;;;34.95;31.55;;;;;;;;;;5140609;27;20220;-79
2023/11/18 07:45:03;;;;;;;35.80;32.20;;;;;;;;;;5139507;27;20225;-78
2023/11/18 07:47:32;;;;;;;36.47;32.00;;;;;;;;;;5140568;27;20278;-80
2023/11/18 07:49:59;;;;;;;37.13;33.30;;;;;;;;;;5139916;27;20224;-80
2023/11/18 07:52:28;;;;;;;34.88;31.63;;;;;;;;;;5140479;27;20193;-80
2023/11/18 07:54:56;;;;;;;35.72;32.33;;;;;;;;;;5140416;27;20276;-79
2023/11/18 07:57:24;;;;;;;34.75;31.25;;;;;;;;;;5139773;27;20294;-79
2023/11/18 07:59:51;;;;;;;35.63;30.85;;;;;;;;;;5139790;27;20290;-80
2023/11/18 08:02:20;;;;;;;32.47;29.17;;;;;;;;;;5139822;27;20216;-80
2023/11/18 08:04:47;;;;;;;32.95;29.67;;;;;;;;;;5139516;28;20229;-80
2023/11/18 08:07:14;;;;;;;31.90;28.52;;;;;;;;;;5139793;28;20266;-79
2023/11/18 08:09:43;;;;;;;32.97;29.95;;;;;;;;;;5140231;28;20201;-79
2023/11/18 08:12:10;;;;;;;30.85;27.65;;;;;;;;;;5139357;28;20268;-80
2023/11/18 08:14:37;;;;;;;31.05;27.98;;;;;;;;;;5139618;28;20273;-80
2023/11/18 08:17:05;;;;;;;31.92;29.02;;;;;;;;;;5134537;28;20262;-80
2023/11/18 08:19:34;;;;;;;30.00;27.25;;;;;;;;;;5139013;28;20206;-79
2023/11/18 08:22:01;;;;;;;31.17;28.48;;;;;;;;;;5139576;28;20211;-79
2023/11/18 08:24:29;;;;;;;31.40;28.60;;;;;;;;;;5138283;28;20657;-79
2023/11/18 08:26:57;;;;;;;29.05;26.45;;;;;;;;;;5139546;28;20296;-80
2023/11/18 08:29:30;;;;;;;29.65;26.85;;;;;;;;;;5140194;28;20209;-80
2023/11/18 08:31:57;;;;;;;27.52;25.42;;;;;;;;;;5137295;28;20205;-79
2023/11/18 08:34:25;;;;;;;27.73;25.30;;;;;;;;;;5121948;28;20202;-81
2023/11/18 08:36:52;;;;;;;27.58;25.48;;;;;;;;;;5119657;28;20233;-79
2023/11/18 08:39:20;;;;;;;29.45;27.00;;;;;;;;;;5118742;28;20226;-80
2023/11/18 08:41:50;;;;;;;27.23;24.80;;;;;;;;;;5118327;28;20320;-79
2023/11/18 08:44:19;;;;;;;29.63;27.17;;;;;;;;;;5118218;28;20258;-79
2023/11/18 08:46:46;;;;;;;34.22;30.92;;;;;;;;;;5118752;28;20202;-79
2023/11/18 08:49:13;;;;;;;32.17;29.47;;;;;;;;;;5124268;28;20226;-78
2023/11/18 08:51:41;;;;;;;28.75;26.25;;;;;;;;;;5137229;27;20458;-77
2023/11/18 08:54:22;;;;;;;28.92;26.27;;;;;;;;;;5139994;27;20229;-79
2023/11/18 08:56:50;;;;;;;27.17;24.75;;;;;;;;;;5137120;27;20327;-77
2023/11/18 08:59:20;;;;;;;27.13;24.80;;;;;;;;;;5134640;27;20252;-77
2023/11/18 09:01:48;;;;;;;27.65;25.45;;;;;;;;;;5134418;27;20208;-77
2023/11/18 09:04:19;;;;;;;26.85;24.73;;;;;;;;;;5133998;27;20312;-77
2023/11/18 09:06:48;;;;;;;28.05;25.65;;;;;;;;;;5134738;27;20224;-78
2023/11/18 09:09:15;;;;;;;25.70;23.77;;;;;;;;;;5122365;27;20588;-77
2023/11/18 09:11:42;;;;;;;26.45;23.88;;;;;;;;;;5132735;27;20268;-77
2023/11/18 09:14:11;;;;;;;24.33;22.60;;;;;;;;;;5131699;27;20229;-78
2023/11/18 09:16:41;;;;;;;25.00;22.92;;;;;;;;;;5132205;27;20208;-78
2023/11/18 09:19:09;;;;;;;25.13;22.95;;;;;;;;;;5112848;28;20897;-78
2023/11/18 09:21:36;;;;;;;24.15;22.15;;;;;;;;;;5112993;28;20637;-79
2023/11/18 09:24:07;;;;;;;24.80;23.10;;;;;;;;;;5112358;28;20206;-78
2023/11/18 09:26:35;;;;;;;23.25;21.55;;;;;;;;;;5112799;28;20243;-78
2023/11/18 09:29:02;;;;;;;24.95;22.85;;;;;;;;;;5111739;28;20724;-78
2023/11/18 09:31:31;;;;;;;24.42;22.70;;;;;;;;;;5112849;28;20570;-78
2023/11/18 09:33:59;;;;;;;23.97;22.17;;;;;;;;;;5112418;28;20206;-78
2023/11/18 09:36:28;;;;;;;24.05;22.27;;;;;;;;;;5112188;28;20440;-78
2023/11/18 09:38:55;;;;;;;23.17;21.67;;;;;;;;;;5112661;28;20264;-78
2023/11/18 09:41:26;;;;;;;24.58;22.77;;;;;;;;;;5112764;28;20271;-78
2023/11/18 09:43:56;;;;;;;24.05;22.45;;;;;;;;;;5111740;28;20682;-77
2023/11/18 09:46:24;;;;;;;24.23;22.52;;;;;;;;;;5112662;28;20202;-78
2023/11/18 09:48:53;;;;;;;26.00;23.80;;;;;;;;;;5111846;28;20222;-78
2023/11/18 09:51:23;;;;;;;24.27;22.50;;;;;;;;;;5113358;28;20230;-78
2023/11/18 09:53:52;;;;;;;25.75;23.92;;;;;;;;;;5113592;28;20426;-79
2023/11/18 09:56:26;;;;;;;25.33;23.40;;;;;;;;;;5114088;28;20209;-78
2023/11/18 09:58:59;;;;;;;26.23;24.33;;;;;;;;;;5115349;28;20228;-78
2023/11/18 10:01:32;;;;;;;25.63;23.92;;;;;;;;;;5113661;28;20277;-78
2023/11/18 10:04:00;;;;;;;25.10;23.43;;;;;;;;;;5114232;27;20194;-77
2023/11/18 10:06:33;;;;;;;26.48;24.45;;;;;;;;;;5133735;27;20457;-79
2023/11/18 10:09:14;;;;;;;24.90;23.30;;;;;;;;;;5133899;27;20244;-78
2023/11/18 10:11:42;;;;;;;26.20;24.30;;;;;;;;;;5134216;27;20210;-78
2023/11/18 10:14:10;;;;;;;24.90;23.10;;;;;;;;;;5133467;27;20236;-78
2023/11/18 10:16:38;;;;;;;25.80;23.87;;;;;;;;;;5133701;27;20201;-78
2023/11/18 10:19:08;;;;;;;26.00;24.20;;;;;;;;;;5133731;27;20492;-77
2023/11/18 10:21:39;;;;;;;25.70;23.93;;;;;;;;;;5134089;27;20438;-78
2023/11/18 10:24:14;;;;;;;25.27;23.27;;;;;;;;;;5133609;27;20516;-79
2023/11/18 10:26:41;;;;;;;26.43;24.40;;;;;;;;;;5133859;27;20438;-79
2023/11/18 10:29:08;;;;;;;26.10;24.10;;;;;;;;;;5134823;27;20519;-79
2023/11/18 10:31:36;;;;;;;26.70;24.50;;;;;;;;;;5133390;27;20455;-78
2023/11/18 10:34:03;;;;;;;25.30;23.57;;;;;;;;;;5136052;27;20443;-81
2023/11/18 10:36:33;;;;;;;26.53;24.63;;;;;;;;;;5140846;27;20424;-82
2023/11/18 10:39:12;;;;;;;24.42;22.83;;;;;;;;;;5122311;28;20483;-85
2023/11/18 10:41:42;;;;;;;25.10;23.33;;;;;;;;;;5120915;28;20202;-80
2023/11/18 10:44:13;;;;;;;26.27;24.37;;;;;;;;;;5121768;28;20236;-81
2023/11/18 10:46:41;;;;;;;24.08;22.30;;;;;;;;;;5122493;28;20449;-81
2023/11/18 10:49:09;;;;;;;25.57;23.70;;;;;;;;;;5122206;28;20291;-80
2023/11/18 10:51:38;;;;;;;25.23;23.53;;;;;;;;;;5121890;28;20487;-79
2023/11/18 10:54:13;;;;;;;25.10;23.38;;;;;;;;;;5123871;27;20419;-81
2023/11/18 10:56:47;;;;;;;25.03;23.33;;;;;;;;;;5141782;27;20232;-81
2023/11/18 10:59:16;;;;;;;26.33;24.33;;;;;;;;;;5137560;27;20460;-81
2023/11/18 11:01:43;;;;;;;25.57;23.90;;;;;;;;;;5122360;28;20444;-81
2023/11/18 11:04:11;;;;;;;24.65;22.85;;;;;;;;;;5121291;28;20455;-81
2023/11/18 11:06:42;;;;;;;24.90;23.17;;;;;;;;;;5121551;28;20259;-80
2023/11/18 11:09:16;;;;;;;25.13;23.27;;;;;;;;;;5121386;28;20464;-79
2023/11/18 11:11:47;;;;;;;25.87;24.07;;;;;;;;;;5128102;27;20462;-82
2023/11/18 11:14:16;;;;;;;24.83;22.93;;;;;;;;;;5122341;27;20452;-81
2023/11/18 11:16:50;;;;;;;24.30;22.70;;;;;;;;;;5124091;27;20459;-82
2023/11/18 11:19:23;;;;;;;24.53;22.97;;;;;;;;;;5121553;28;20494;-81
2023/11/18 11:21:55;;;;;;;24.60;23.00;;;;;;;;;;5120988;28;20803;-81
2023/11/18 11:24:33;;;;;;;24.40;22.80;;;;;;;;;;5121481;28;20415;-82
2023/11/18 11:27:07;;;;;;;25.17;23.47;;;;;;;;;;5122211;28;20435;-81
2023/11/18 11:29:37;;;;;;;24.37;22.87;;;;;;;;;;5122016;28;20501;-81
2023/11/18 11:32:13;;;;;;;24.83;23.07;;;;;;;;;;5122482;28;20436;-81
2023/11/18 11:34:42;;;;;;;25.07;23.20;;;;;;;;;;5121067;28;20448;-80
2023/11/18 11:37:09;;;;;;;24.77;22.97;;;;;;;;;;5122001;28;20479;-81
2023/11/18 11:39:46;;;;;;;24.47;22.83;;;;;;;;;;5121654;28;20877;-81
2023/11/18 11:42:14;;;;;;;23.27;21.77;;;;;;;;;;5122329;28;20546;-81
2023/11/18 11:44:42;;;;;;;22.80;21.20;;;;;;;;;;5120768;28;20443;-81
2023/11/18 11:47:15;;;;;;;24.23;22.30;;;;;;;;;;5121728;28;20456;-81
2023/11/18 11:49:47;;;;;;;24.03;22.33;;;;;;;;;;5122079;28;20515;-81
2023/11/18 11:52:17;;;;;;;23.40;21.90;;;;;;;;;;5121849;28;20441;-81
2023/11/18 11:54:50;;;;;;;25.23;23.17;;;;;;;;;;5121173;28;20446;-81
2023/11/18 11:57:18;;;;;;;25.47;23.17;;;;;;;;;;5121129;28;20240;-81
2023/11/18 11:59:57;;;;;;;24.67;22.90;;;;;;;;;;5121752;28;20471;-80
2023/11/18 12:02:26;;;;;;;24.90;23.03;;;;;;;;;;5119325;28;20504;-80
2023/11/18 12:04:54;;;;;;;25.30;23.70;;;;;;;;;;5120184;28;20431;-81
2023/11/18 12:07:23;;;;;;;25.00;23.33;;;;;;;;;;5120882;28;20447;-82
2023/11/18 12:09:53;;;;;;;24.50;22.70;;;;;;;;;;5121646;28;20447;-82
2023/11/18 12:12:22;;;;;;;24.40;22.87;;;;;;;;;;5127073;27;20486;-81
2023/11/18 12:14:56;;;;;;;24.83;23.33;;;;;;;;;;5142145;28;20545;-79
2023/11/18 12:17:24;;;;;;;25.10;22.83;;;;;;;;;;5142891;28;20501;-80
2023/11/18 12:19:58;;;;;;;25.03;23.23;;;;;;;;;;5142916;28;20455;-80
2023/11/18 12:22:26;;;;;;;25.23;23.40;;;;;;;;;;5142875;28;20634;-81
2023/11/18 12:25:29;;;;;;;25.77;23.97;;;;;;;;;;5140891;27;20492;-81
2023/11/18 12:27:58;;;;;;;25.03;23.13;;;;;;;;;;5049229;28;20491;-81
2023/11/18 12:31:04;;;;;;;28.53;25.80;;;;;;;;;;5043317;28;20460;-81
2023/11/18 12:33:52;;;;;;;26.60;24.70;;;;;;;;;;5103711;28;20458;-82
2023/11/18 12:36:38;;;;;;;25.97;24.07;;;;;;;;;;5120258;28;20439;-82
2023/11/18 12:39:23;;;;;;;26.93;25.13;;;;;;;;;;5125447;28;20510;-82
2023/11/18 12:41:56;;;;;;;26.60;24.50;;;;;;;;;;5125328;28;20428;-81
2023/11/18 12:44:31;;;;;;;27.47;25.23;;;;;;;;;;5124869;28;20522;-80
2023/11/18 12:47:09;;;;;;;27.30;25.23;;;;;;;;;;5125816;28;20448;-81
2023/11/18 12:49:40;;;;;;;26.07;24.20;;;;;;;;;;5124896;28;20493;-81
2023/11/18 12:52:09;;;;;;;24.02;22.33;;;;;;;;;;5125576;28;20430;-82
2023/11/18 12:54:37;;;;;;;25.88;24.13;;;;;;;;;;5125018;28;20206;-81
2023/11/18 12:57:06;;;;;;;26.40;23.98;;;;;;;;;;5122008;28;20228;-83
2023/11/18 12:59:35;;;;;;;25.50;23.70;;;;;;;;;;5123252;28;20210;-80
2023/11/18 13:02:04;;;;;;;25.27;23.57;;;;;;;;;;5122898;28;20447;-80
2023/11/18 13:04:31;;;;;;;26.30;24.40;;;;;;;;;;5121851;28;21021;-80
2023/11/18 13:06:59;;;;;;;25.70;23.70;;;;;;;;;;5122466;28;20489;-80
2023/11/18 13:09:30;;;;;;;26.30;24.40;;;;;;;;;;5124165;28;20210;-81
2023/11/18 13:11:58;;;;;;;28.67;26.20;;;;;;;;;;5123513;28;20198;-81
2023/11/18 13:14:26;;;;;;;26.67;24.70;;;;;;;;;;5122058;28;20444;-79
2023/11/18 13:16:55;;;;;;;28.90;26.83;;;;;;;;;;5122590;28;20446;-80
2023/11/18 13:19:26;;;;;;;27.50;25.50;;;;;;;;;;5122302;28;20440;-80
2023/11/18 13:21:54;;;;;;;25.07;23.27;;;;;;;;;;5121996;28;20505;-79
2023/11/18 13:24:22;;;;;;;27.97;25.80;;;;;;;;;;5120405;28;20426;-81
2023/11/18 13:26:50;;;;;;;23.80;22.10;;;;;;;;;;5121101;28;20556;-80
2023/11/18 13:29:17;;;;;;;26.07;23.97;;;;;;;;;;5120277;28;20954;-79
2023/11/18 13:31:44;;;;;;;27.40;25.50;;;;;;;;;;5120532;28;20423;-79
2023/11/18 13:34:13;;;;;;;26.00;24.20;;;;;;;;;;5122572;27;20456;-80
2023/11/18 13:36:40;;;;;;;25.77;23.60;;;;;;;;;;5141228;27;20446;-79
2023/11/18 13:39:09;;;;;;;24.87;23.17;;;;;;;;;;5140614;27;20508;-82
2023/11/18 13:41:36;;;;;;;24.50;22.90;;;;;;;;;;5140806;27;20465;-81
2023/11/18 13:44:03;;;;;;;24.83;23.13;;;;;;;;;;5140244;27;20447;-80
2023/11/18 13:46:30;;;;;;;25.58;23.77;;;;;;;;;;5140995;27;20475;-80
2023/11/18 13:48:59;;;;;;;26.03;23.87;;;;;;;;;;5141471;27;20217;-81
2023/11/18 13:51:29;;;;;;;24.63;22.83;;;;;;;;;;5141753;27;20451;-80
2023/11/18 13:53:56;;;;;;;29.67;27.20;;;;;;;;;;5141074;27;20455;-79
2023/11/18 13:56:23;;;;;;;33.97;30.77;;;;;;;;;;5141047;27;20473;-80
2023/11/18 13:58:50;;;;;;;25.90;23.70;;;;;;;;;;5140682;27;20231;-81
2023/11/18 14:01:18;;;;;;;24.95;23.23;;;;;;;;;;5140712;27;20455;-82
2023/11/18 14:03:47;;;;;;;24.70;22.93;;;;;;;;;;5141725;27;20226;-80
2023/11/18 14:06:17;;;;;;;25.23;23.53;;;;;;;;;;5140561;27;20483;-80
2023/11/18 14:08:45;;;;;;;23.30;21.60;;;;;;;;;;5140790;27;20475;-82
2023/11/18 14:11:12;;;;;;;25.23;23.33;;;;;;;;;;5143402;27;20221;-82
2023/11/18 14:13:39;;;;;;;27.70;25.80;;;;;;;;;;5143511;27;20432;-81
2023/11/18 14:16:09;;;;;;;27.43;25.53;;;;;;;;;;5143396;27;20198;-83
2023/11/18 14:18:37;;;;;;;24.53;22.93;;;;;;;;;;5144262;27;20471;-81
2023/11/18 14:21:05;;;;;;;24.75;23.00;;;;;;;;;;5145065;27;20447;-82
2023/11/18 14:23:32;;;;;;;25.67;23.58;;;;;;;;;;5136016;27;20210;-82
2023/11/18 14:26:01;;;;;;;24.98;23.20;;;;;;;;;;5123385;28;20234;-82